Time;durP1;ratioP1;P1;durP2;ratioP2;P2;SDS_P1;SDS_P2;PMS_P1;PMS_P2;Temp;Humidity;BMP_temperature;BMP_pressure;BME280_temperature;BME280_humidity;BME280_pressure;Samples;Min_cycle;Max_cycle;Signal;HPM_P1;HPM_P2
2022/12/11 00:00:20;;;;;;;203.47;40.17;;;;;;;;;;5007638;28;20703;-62
2022/12/11 00:02:46;;;;;;;199.10;41.57;;;;;;;;;;5006901;28;20289;-62
2022/12/11 00:05:12;;;;;;;190.43;44.20;;;;;;;;;;5008821;28;20313;-62
2022/12/11 00:07:38;;;;;;;205.07;44.93;;;;;;;;;;5006279;28;20285;-62
2022/12/11 00:10:05;;;;;;;203.50;41.33;;;;;;;;;;5006702;28;20797;-62
2022/12/11 00:12:31;;;;;;;195.33;41.87;;;;;;;;;;5005755;28;20038;-62
2022/12/11 00:14:57;;;;;;;191.00;41.63;;;;;;;;;;5008443;28;20704;-62
2022/12/11 00:17:23;;;;;;;184.10;38.03;;;;;;;;;;5005120;28;20803;-62
2022/12/11 00:19:49;;;;;;;177.67;38.97;;;;;;;;;;5006268;28;20321;-61
2022/12/11 00:22:15;;;;;;;181.87;39.47;;;;;;;;;;5001191;28;20818;-62
2022/12/11 00:24:41;;;;;;;173.13;39.37;;;;;;;;;;5004162;28;20288;-62
2022/12/11 00:27:07;;;;;;;175.97;37.83;;;;;;;;;;5006425;28;20281;-62
2022/12/11 00:29:34;;;;;;;196.93;42.10;;;;;;;;;;5008225;28;20285;-62
2022/12/11 00:32:00;;;;;;;171.47;38.60;;;;;;;;;;5003729;28;20289;-62
2022/12/11 00:34:26;;;;;;;186.13;39.23;;;;;;;;;;5002394;28;20732;-62
2022/12/11 00:36:52;;;;;;;172.93;39.33;;;;;;;;;;5007693;28;20339;-61
2022/12/11 00:39:18;;;;;;;177.30;40.47;;;;;;;;;;5006811;28;20295;-62
2022/12/11 00:41:44;;;;;;;167.90;40.80;;;;;;;;;;5005864;28;20289;-62
2022/12/11 00:44:10;;;;;;;198.43;40.97;;;;;;;;;;5009614;28;20293;-62
2022/12/11 00:46:36;;;;;;;182.57;37.87;;;;;;;;;;5008746;28;20297;-62
2022/12/11 00:49:03;;;;;;;183.47;39.37;;;;;;;;;;5011659;28;20339;-62
2022/12/11 00:51:29;;;;;;;175.63;37.37;;;;;;;;;;5011419;28;20285;-62
2022/12/11 00:53:55;;;;;;;163.10;36.70;;;;;;;;;;5009338;28;20831;-62
2022/12/11 00:56:22;;;;;;;175.27;37.30;;;;;;;;;;5011397;28;20663;-62
2022/12/11 00:58:48;;;;;;;154.17;33.70;;;;;;;;;;5010263;28;20312;-62
2022/12/11 01:01:16;;;;;;;144.17;35.30;;;;;;;;;;5010579;28;20313;-61
2022/12/11 01:03:42;;;;;;;152.27;34.40;;;;;;;;;;5011177;28;20281;-62
2022/12/11 01:06:13;;;;;;;153.40;34.47;;;;;;;;;;5011022;28;20308;-62
2022/12/11 01:08:39;;;;;;;173.50;37.97;;;;;;;;;;5011196;28;20285;-62
2022/12/11 01:11:06;;;;;;;181.53;35.63;;;;;;;;;;5010056;28;20293;-61
2022/12/11 01:13:32;;;;;;;168.53;34.20;;;;;;;;;;5011125;28;20048;-62
2022/12/11 01:15:58;;;;;;;126.47;30.00;;;;;;;;;;5010072;28;20281;-62
2022/12/11 01:18:24;;;;;;;133.23;32.13;;;;;;;;;;5011345;28;20272;-62
2022/12/11 01:20:50;;;;;;;153.10;35.17;;;;;;;;;;5010643;28;20311;-62
2022/12/11 01:23:16;;;;;;;131.97;32.17;;;;;;;;;;5010637;28;20324;-62
2022/12/11 01:25:43;;;;;;;135.47;35.37;;;;;;;;;;5009771;28;20293;-62
2022/12/11 01:28:09;;;;;;;140.43;32.83;;;;;;;;;;5010612;28;20289;-62
2022/12/11 01:30:35;;;;;;;164.43;36.80;;;;;;;;;;5010898;28;20799;-62
2022/12/11 01:33:01;;;;;;;184.33;36.70;;;;;;;;;;5010754;28;20293;-63
2022/12/11 01:35:28;;;;;;;163.97;34.57;;;;;;;;;;5010620;28;20799;-62
2022/12/11 01:37:54;;;;;;;172.87;35.70;;;;;;;;;;5010873;28;20372;-62
2022/12/11 01:40:20;;;;;;;155.97;36.73;;;;;;;;;;4992563;28;20316;-62
2022/12/11 01:42:46;;;;;;;156.03;34.83;;;;;;;;;;5010542;28;20277;-62
2022/12/11 01:45:22;;;;;;;161.47;34.27;;;;;;;;;;5010254;28;20289;-63
2022/12/11 01:47:56;;;;;;;168.83;36.10;;;;;;;;;;5009693;28;20273;-62
2022/12/11 01:50:22;;;;;;;154.33;36.37;;;;;;;;;;5010315;28;20285;-63
2022/12/11 01:52:49;;;;;;;150.03;33.37;;;;;;;;;;5008876;28;20443;-62
2022/12/11 01:55:17;;;;;;;159.53;36.30;;;;;;;;;;5010308;28;20755;-62
2022/12/11 01:57:44;;;;;;;130.47;32.47;;;;;;;;;;5010327;28;20285;-62
2022/12/11 02:00:11;;;;;;;141.87;34.17;;;;;;;;;;5010262;28;20312;-62
2022/12/11 02:02:37;;;;;;;147.93;35.37;;;;;;;;;;5010266;28;20289;-62
2022/12/11 02:05:05;;;;;;;140.90;32.83;;;;;;;;;;5010046;28;20320;-62
2022/12/11 02:07:33;;;;;;;137.10;34.03;;;;;;;;;;5010212;28;20365;-62
2022/12/11 02:09:59;;;;;;;144.10;34.33;;;;;;;;;;5010332;28;20281;-62
2022/12/11 02:12:25;;;;;;;132.87;32.93;;;;;;;;;;5008440;28;20343;-62
2022/12/11 02:15:10;;;;;;;172.73;37.63;;;;;;;;;;5008868;28;20289;-63
2022/12/11 02:17:53;;;;;;;161.30;33.90;;;;;;;;;;5010100;28;20289;-62
2022/12/11 02:20:38;;;;;;;158.77;33.10;;;;;;;;;;5009738;28;20309;-62
2022/12/11 02:23:13;;;;;;;169.90;35.97;;;;;;;;;;5009324;28;20057;-62
2022/12/11 02:25:58;;;;;;;161.13;36.17;;;;;;;;;;5008223;28;20304;-62
2022/12/11 02:28:33;;;;;;;140.10;35.17;;;;;;;;;;5009949;28;20284;-62
2022/12/11 02:31:01;;;;;;;162.97;36.63;;;;;;;;;;5009781;28;20281;-62
2022/12/11 02:33:39;;;;;;;174.03;34.73;;;;;;;;;;5009259;28;20806;-62
2022/12/11 02:36:06;;;;;;;164.63;35.27;;;;;;;;;;5009738;28;20667;-62
2022/12/11 02:38:35;;;;;;;177.67;38.27;;;;;;;;;;5009756;28;20285;-62
2022/12/11 02:41:02;;;;;;;181.07;38.27;;;;;;;;;;5009702;28;20312;-63
2022/12/11 02:43:31;;;;;;;174.53;35.97;;;;;;;;;;5009587;28;20296;-63
2022/12/11 02:45:57;;;;;;;180.50;38.90;;;;;;;;;;5008791;28;20292;-63
2022/12/11 02:48:23;;;;;;;160.23;36.80;;;;;;;;;;5009400;28;20342;-63
2022/12/11 02:50:51;;;;;;;175.97;36.23;;;;;;;;;;5009495;28;20681;-63
2022/12/11 02:53:19;;;;;;;171.03;34.70;;;;;;;;;;5009573;28;20340;-62
2022/12/11 02:55:47;;;;;;;165.33;34.70;;;;;;;;;;5009338;28;20285;-63
2022/12/11 02:58:22;;;;;;;169.80;38.90;;;;;;;;;;5008878;28;20691;-62
2022/12/11 03:00:48;;;;;;;174.27;39.63;;;;;;;;;;5007761;28;20320;-63
2022/12/11 03:03:15;;;;;;;187.17;38.93;;;;;;;;;;5009136;28;20288;-62
2022/12/11 03:05:41;;;;;;;166.13;37.33;;;;;;;;;;5009654;28;20379;-63
2022/12/11 03:08:07;;;;;;;169.53;39.33;;;;;;;;;;5009141;28;20285;-63
2022/12/11 03:10:33;;;;;;;177.90;41.90;;;;;;;;;;5009026;28;20810;-62
2022/12/11 03:13:00;;;;;;;205.63;39.60;;;;;;;;;;5008150;28;20339;-63
2022/12/11 03:15:34;;;;;;;214.03;42.23;;;;;;;;;;5009030;28;20791;-63
2022/12/11 03:18:00;;;;;;;;;;;;;;;;;;5008293;28;20297;-62
2022/12/11 03:20:33;;;;;;;190.27;38.67;;;;;;;;;;5008204;28;19982;-62
2022/12/11 03:22:59;;;;;;;185.32;40.63;;;;;;;;;;5009291;28;20041;-63
2022/12/11 03:25:30;;;;;;;180.77;38.37;;;;;;;;;;5007297;28;20054;-63
2022/12/11 03:27:57;;;;;;;176.73;38.60;;;;;;;;;;5009091;28;20281;-63
2022/12/11 03:30:24;;;;;;;187.87;39.33;;;;;;;;;;5008355;28;20344;-63
2022/12/11 03:32:52;;;;;;;169.93;38.13;;;;;;;;;;5008050;28;20288;-63
2022/12/11 03:35:22;;;;;;;165.43;38.10;;;;;;;;;;5008406;28;20351;-63
2022/12/11 03:37:49;;;;;;;176.43;37.93;;;;;;;;;;5008897;28;20698;-63
2022/12/11 03:40:16;;;;;;;168.70;36.00;;;;;;;;;;5008686;28;20308;-63
2022/12/11 03:42:47;;;;;;;155.30;36.40;;;;;;;;;;5008511;28;20825;-63
2022/12/11 03:45:14;;;;;;;156.17;36.07;;;;;;;;;;5008498;28;20293;-63
2022/12/11 03:47:41;;;;;;;135.53;35.27;;;;;;;;;;5009039;28;20367;-63
2022/12/11 03:50:09;;;;;;;159.53;34.47;;;;;;;;;;4991247;28;20293;-63
2022/12/11 03:52:35;;;;;;;172.20;36.17;;;;;;;;;;5008558;28;20276;-63
2022/12/11 03:55:03;;;;;;;138.77;35.87;;;;;;;;;;5008013;28;20285;-63
2022/12/11 03:57:30;;;;;;;151.77;34.73;;;;;;;;;;5008867;28;20343;-63
2022/12/11 03:59:56;;;;;;;164.33;37.67;;;;;;;;;;5007174;28;20674;-63
2022/12/11 04:02:23;;;;;;;150.80;36.23;;;;;;;;;;5008652;28;20364;-63
2022/12/11 04:04:49;;;;;;;160.47;37.40;;;;;;;;;;5008691;28;20303;-64
2022/12/11 04:07:15;;;;;;;177.80;37.63;;;;;;;;;;5008775;28;20284;-63
2022/12/11 04:09:41;;;;;;;168.43;37.20;;;;;;;;;;5008825;28;20844;-63
2022/12/11 04:12:09;;;;;;;151.97;36.83;;;;;;;;;;5011267;28;20281;-62
2022/12/11 04:25:35;;;;;;;168.57;35.97;;;;;;;;;;5012028;28;20801;-63
2022/12/11 04:28:02;;;;;;;129.63;35.93;;;;;;;;;;5012049;28;20636;-63
2022/12/11 04:30:28;;;;;;;140.80;35.20;;;;;;;;;;5011033;28;20281;-63
2022/12/11 04:32:54;;;;;;;166.73;37.40;;;;;;;;;;5011681;28;20285;-63
2022/12/11 04:35:20;;;;;;;171.37;38.00;;;;;;;;;;5011600;28;20343;-63
2022/12/11 04:37:46;;;;;;;159.10;37.90;;;;;;;;;;5011835;28;20324;-63
2022/12/11 04:40:14;;;;;;;145.43;32.63;;;;;;;;;;5011749;28;20304;-63
2022/12/11 04:42:40;;;;;;;169.83;36.87;;;;;;;;;;5011801;28;20293;-63
2022/12/11 04:45:07;;;;;;;151.60;35.27;;;;;;;;;;5011510;28;20300;-63
2022/12/11 04:47:35;;;;;;;143.03;35.43;;;;;;;;;;5011480;28;20292;-63
2022/12/11 04:50:01;;;;;;;161.30;36.90;;;;;;;;;;5009910;28;20635;-63
2022/12/11 04:52:27;;;;;;;151.40;35.13;;;;;;;;;;5010331;28;20695;-63
2022/12/11 04:54:53;;;;;;;159.83;36.80;;;;;;;;;;5011172;28;20505;-63
2022/12/11 04:57:20;;;;;;;129.63;34.23;;;;;;;;;;5011314;28;20368;-63
2022/12/11 04:59:46;;;;;;;173.63;34.33;;;;;;;;;;5011401;28;20312;-63
2022/12/11 05:02:12;;;;;;;162.00;36.67;;;;;;;;;;5011423;28;20312;-63
2022/12/11 05:04:38;;;;;;;144.53;33.93;;;;;;;;;;5011477;28;20662;-63
2022/12/11 05:07:04;;;;;;;161.40;35.60;;;;;;;;;;5010406;28;20336;-63
2022/12/11 05:09:30;;;;;;;157.80;32.13;;;;;;;;;;5010811;28;20281;-63
2022/12/11 05:11:56;;;;;;;152.47;37.17;;;;;;;;;;5011562;28;20288;-63
2022/12/11 05:14:22;;;;;;;164.30;38.07;;;;;;;;;;5011029;28;20790;-63
2022/12/11 05:16:49;;;;;;;170.07;38.70;;;;;;;;;;5011195;28;20487;-63
2022/12/11 05:19:15;;;;;;;161.53;36.90;;;;;;;;;;5010883;28;20321;-63
2022/12/11 05:21:41;;;;;;;152.37;34.70;;;;;;;;;;5010412;28;20799;-63
2022/12/11 05:24:07;;;;;;;164.83;35.90;;;;;;;;;;5008896;28;20277;-63
2022/12/11 05:26:33;;;;;;;181.70;38.30;;;;;;;;;;5011102;28;20409;-63
2022/12/11 05:28:59;;;;;;;185.40;37.97;;;;;;;;;;5010972;28;20293;-63
2022/12/11 05:31:26;;;;;;;189.00;36.70;;;;;;;;;;5008901;28;20277;-63
2022/12/11 05:33:52;;;;;;;162.77;35.57;;;;;;;;;;5010818;28;20104;-63
2022/12/11 05:36:23;;;;;;;166.70;37.60;;;;;;;;;;5010602;28;20296;-63
2022/12/11 05:38:49;;;;;;;189.17;39.97;;;;;;;;;;5010979;28;20324;-63
2022/12/11 05:41:16;;;;;;;158.33;37.00;;;;;;;;;;5010627;28;20305;-64
2022/12/11 05:43:43;;;;;;;155.50;34.60;;;;;;;;;;5008878;28;20652;-63
2022/12/11 05:46:10;;;;;;;170.23;36.33;;;;;;;;;;5009304;28;20289;-63
2022/12/11 05:48:36;;;;;;;152.40;34.73;;;;;;;;;;5010503;28;20296;-63
2022/12/11 05:51:03;;;;;;;174.20;39.33;;;;;;;;;;5008906;28;20293;-63
2022/12/11 05:53:29;;;;;;;166.83;35.17;;;;;;;;;;5010263;28;20285;-63
2022/12/11 05:56:00;;;;;;;172.30;36.57;;;;;;;;;;5010375;28;20284;-63
2022/12/11 05:58:26;;;;;;;160.50;35.80;;;;;;;;;;5009844;28;20291;-63
2022/12/11 06:00:52;;;;;;;176.17;37.30;;;;;;;;;;5010505;28;20579;-63
2022/12/11 06:03:18;;;;;;;162.10;38.03;;;;;;;;;;5010204;28;20293;-63
2022/12/11 06:05:44;;;;;;;134.07;33.63;;;;;;;;;;5010387;28;20779;-63
2022/12/11 06:08:11;;;;;;;156.07;35.23;;;;;;;;;;5008484;28;20806;-63
2022/12/11 06:10:37;;;;;;;145.47;35.40;;;;;;;;;;5010472;28;20316;-64
2022/12/11 06:13:03;;;;;;;157.53;37.03;;;;;;;;;;5009924;28;20367;-64
2022/12/11 06:15:29;;;;;;;146.83;35.40;;;;;;;;;;5008776;28;20325;-63
2022/12/11 06:17:55;;;;;;;158.17;35.40;;;;;;;;;;5008565;28;20285;-63
2022/12/11 06:20:21;;;;;;;171.17;37.93;;;;;;;;;;5009353;28;20313;-63
2022/12/11 06:22:47;;;;;;;154.70;35.90;;;;;;;;;;5009643;28;20471;-64
2022/12/11 06:25:13;;;;;;;159.77;34.03;;;;;;;;;;5009721;28;20049;-64
2022/12/11 06:27:39;;;;;;;163.10;37.00;;;;;;;;;;5008216;28;20655;-64
2022/12/11 06:30:06;;;;;;;158.90;36.87;;;;;;;;;;5009844;28;20046;-64
2022/12/11 06:32:32;;;;;;;182.50;39.23;;;;;;;;;;5009184;28;20309;-64
2022/12/11 06:34:58;;;;;;;167.53;37.47;;;;;;;;;;5008120;28;20289;-64
2022/12/11 06:37:24;;;;;;;158.97;35.57;;;;;;;;;;5008412;28;20343;-64
2022/12/11 06:39:50;;;;;;;155.87;38.30;;;;;;;;;;5007921;28;20575;-64
2022/12/11 06:42:16;;;;;;;167.73;38.17;;;;;;;;;;5009260;28;20292;-63
2022/12/11 06:44:42;;;;;;;149.47;37.77;;;;;;;;;;5009058;28;20795;-63
2022/12/11 06:47:08;;;;;;;158.97;37.43;;;;;;;;;;4991947;28;20292;-64
2022/12/11 06:49:34;;;;;;;160.13;39.23;;;;;;;;;;5007673;28;20054;-64
2022/12/11 06:52:00;;;;;;;158.67;39.90;;;;;;;;;;5009325;28;20281;-64
2022/12/11 06:54:27;;;;;;;174.37;37.83;;;;;;;;;;5008790;28;20293;-64
2022/12/11 06:56:53;;;;;;;173.33;36.90;;;;;;;;;;5007736;28;20284;-64
2022/12/11 06:59:19;;;;;;;156.40;38.83;;;;;;;;;;5009185;28;20343;-64
2022/12/11 07:01:45;;;;;;;158.50;38.30;;;;;;;;;;5009023;28;20640;-63
2022/12/11 07:04:11;;;;;;;131.83;35.43;;;;;;;;;;5009283;28;20289;-63
2022/12/11 07:06:37;;;;;;;173.70;36.60;;;;;;;;;;5008735;28;20806;-64
2022/12/11 07:09:04;;;;;;;154.70;38.13;;;;;;;;;;5009143;28;20053;-63
2022/12/11 07:11:30;;;;;;;177.67;37.63;;;;;;;;;;5009069;28;20319;-64
2022/12/11 07:13:59;;;;;;;156.47;36.93;;;;;;;;;;5009159;28;20284;-64
2022/12/11 07:16:26;;;;;;;153.43;34.17;;;;;;;;;;5008878;28;20297;-64
2022/12/11 07:18:52;;;;;;;167.50;38.00;;;;;;;;;;5007415;28;20292;-63
2022/12/11 07:21:19;;;;;;;165.23;36.47;;;;;;;;;;5008469;28;20660;-63
2022/12/11 07:23:46;;;;;;;157.87;37.40;;;;;;;;;;5008860;28;20294;-63
2022/12/11 07:26:14;;;;;;;164.77;37.73;;;;;;;;;;5008889;28;20309;-64
2022/12/11 07:28:40;;;;;;;147.80;37.53;;;;;;;;;;5008703;28;20285;-64
2022/12/11 07:31:14;;;;;;;149.97;35.20;;;;;;;;;;5006904;28;20289;-63
2022/12/11 07:33:40;;;;;;;;;;;;;;;;;;5009146;28;20926;-64
2022/12/11 07:36:07;;;;;;;143.30;35.17;;;;;;;;;;5007485;28;20015;-64
2022/12/11 07:38:33;;;;;;;152.30;34.90;;;;;;;;;;5007687;28;20054;-63
2022/12/11 07:41:04;;;;;;;147.13;34.50;;;;;;;;;;5008945;28;20392;-63
2022/12/11 07:43:30;;;;;;;138.07;36.23;;;;;;;;;;5008161;28;20365;-63
2022/12/11 07:46:00;;;;;;;138.80;34.93;;;;;;;;;;5009598;28;20363;-63
2022/12/11 07:48:26;;;;;;;157.97;37.37;;;;;;;;;;5012351;28;20320;-64
2022/12/11 07:50:52;;;;;;;142.07;37.27;;;;;;;;;;5011156;28;20312;-64
2022/12/11 07:53:18;;;;;;;159.00;37.40;;;;;;;;;;5012812;28;20053;-63
2022/12/11 07:55:44;;;;;;;149.57;37.10;;;;;;;;;;5012305;28;20339;-64
2022/12/11 07:58:10;;;;;;;154.43;34.47;;;;;;;;;;5012447;28;20285;-64
2022/12/11 08:00:36;;;;;;;146.77;36.07;;;;;;;;;;5010864;28;20799;-64
2022/12/11 08:03:02;;;;;;;155.60;37.57;;;;;;;;;;5012422;28;20060;-64
2022/12/11 08:05:28;;;;;;;159.43;35.97;;;;;;;;;;5012573;28;20414;-63
2022/12/11 08:07:54;;;;;;;149.63;35.10;;;;;;;;;;5010922;28;20137;-63
2022/12/11 08:10:21;;;;;;;157.83;35.33;;;;;;;;;;5011460;28;20170;-63
2022/12/11 08:12:47;;;;;;;155.40;34.97;;;;;;;;;;5011812;28;20770;-64
2022/12/11 08:15:13;;;;;;;151.73;35.13;;;;;;;;;;5011691;28;20288;-64
2022/12/11 08:17:39;;;;;;;141.03;34.07;;;;;;;;;;5012491;28;20053;-64
2022/12/11 08:20:07;;;;;;;171.97;36.90;;;;;;;;;;5011897;28;20313;-64
2022/12/11 08:22:33;;;;;;;140.90;35.10;;;;;;;;;;5012239;28;20046;-64
2022/12/11 08:24:59;;;;;;;156.87;36.90;;;;;;;;;;5011671;28;20289;-64
2022/12/11 08:27:25;;;;;;;157.87;36.60;;;;;;;;;;5009491;28;20813;-64
2022/12/11 08:29:51;;;;;;;127.10;35.53;;;;;;;;;;5011759;28;20861;-64
2022/12/11 08:32:17;;;;;;;163.43;36.47;;;;;;;;;;5011568;28;20292;-64
2022/12/11 08:34:43;;;;;;;161.83;35.57;;;;;;;;;;5011927;28;20288;-64
2022/12/11 08:37:09;;;;;;;130.07;34.07;;;;;;;;;;5011748;28;20042;-64
2022/12/11 08:39:35;;;;;;;145.40;34.57;;;;;;;;;;5010024;28;20789;-64
2022/12/11 08:42:01;;;;;;;134.53;34.50;;;;;;;;;;5011459;28;20639;-64
2022/12/11 08:44:28;;;;;;;139.43;34.67;;;;;;;;;;5011378;28;20053;-64
2022/12/11 08:46:54;;;;;;;159.47;37.57;;;;;;;;;;5011370;28;20288;-64
2022/12/11 08:49:20;;;;;;;145.80;34.20;;;;;;;;;;5011111;28;20293;-64
2022/12/11 08:51:46;;;;;;;153.60;35.13;;;;;;;;;;5011497;28;20088;-64
2022/12/11 08:54:12;;;;;;;146.13;33.73;;;;;;;;;;5010805;28;20065;-64
2022/12/11 08:56:38;;;;;;;134.03;36.53;;;;;;;;;;5010920;28;20116;-64
2022/12/11 08:59:05;;;;;;;137.70;34.63;;;;;;;;;;5009926;28;20397;-64
2022/12/11 09:01:31;;;;;;;153.30;34.17;;;;;;;;;;5011042;28;20057;-64
2022/12/11 09:03:57;;;;;;;128.60;32.83;;;;;;;;;;5010851;28;20289;-64
2022/12/11 09:06:25;;;;;;;141.93;34.03;;;;;;;;;;5009679;28;20668;-64
2022/12/11 09:08:51;;;;;;;146.17;34.17;;;;;;;;;;5009582;28;20293;-64
2022/12/11 09:11:19;;;;;;;138.80;34.17;;;;;;;;;;5009328;28;20313;-64
2022/12/11 09:13:45;;;;;;;126.30;31.00;;;;;;;;;;5010891;28;20360;-64
2022/12/11 09:16:13;;;;;;;135.57;32.53;;;;;;;;;;5009361;28;20296;-64
2022/12/11 09:18:39;;;;;;;120.43;32.23;;;;;;;;;;5010344;28;20082;-64
2022/12/11 09:21:10;;;;;;;134.80;34.00;;;;;;;;;;5010140;28;20309;-64
2022/12/11 09:23:36;;;;;;;125.03;32.10;;;;;;;;;;5009051;28;20827;-64
2022/12/11 09:26:10;;;;;;;128.67;32.03;;;;;;;;;;5010427;28;20281;-64
2022/12/11 09:28:36;;;;;;;138.53;31.90;;;;;;;;;;5010855;28;20292;-64
2022/12/11 09:31:09;;;;;;;124.57;32.50;;;;;;;;;;5008732;28;20285;-64
2022/12/11 09:33:35;;;;;;;132.70;33.88;;;;;;;;;;4989674;28;20289;-65
2022/12/11 09:36:02;;;;;;;117.73;33.67;;;;;;;;;;4990977;28;20046;-64
2022/12/11 09:38:28;;;;;;;141.70;33.93;;;;;;;;;;4990817;28;20290;-64
2022/12/11 09:40:54;;;;;;;135.47;32.43;;;;;;;;;;4990075;28;20782;-64
2022/12/11 09:43:29;;;;;;;115.60;31.40;;;;;;;;;;4990947;28;20792;-64
2022/12/11 09:45:55;;;;;;;122.10;33.83;;;;;;;;;;4990264;28;20784;-64
2022/12/11 09:48:23;;;;;;;155.27;34.27;;;;;;;;;;4990713;28;20321;-64
2022/12/11 09:50:51;;;;;;;125.97;31.23;;;;;;;;;;4990337;28;20302;-64
2022/12/11 09:53:23;;;;;;;130.37;31.07;;;;;;;;;;5010340;28;20765;-64
2022/12/11 09:55:58;;;;;;;134.70;33.30;;;;;;;;;;5010152;28;20317;-65
2022/12/11 09:58:31;;;;;;;119.73;32.70;;;;;;;;;;5010169;28;20296;-64
2022/12/11 10:01:00;;;;;;;137.82;32.42;;;;;;;;;;5009369;28;20053;-65
2022/12/11 10:03:37;;;;;;;136.80;33.53;;;;;;;;;;5008312;28;20050;-65
2022/12/11 10:06:25;;;;;;;127.30;34.17;;;;;;;;;;5009623;28;20296;-65
2022/12/11 10:09:02;;;;;;;148.07;33.17;;;;;;;;;;5009521;28;20292;-64
2022/12/11 10:11:47;;;;;;;119.43;30.77;;;;;;;;;;5009787;28;20826;-64
2022/12/11 10:14:13;;;;;;;121.53;31.83;;;;;;;;;;5009713;28;20464;-64
2022/12/11 10:16:50;;;;;;;147.30;32.40;;;;;;;;;;5009915;28;20299;-65
2022/12/11 10:19:18;;;;;;;127.60;32.50;;;;;;;;;;5009628;28;20050;-64
2022/12/11 10:21:45;;;;;;;128.17;34.70;;;;;;;;;;5008293;28;20811;-64
2022/12/11 10:24:24;;;;;;;129.30;31.33;;;;;;;;;;5009518;28;20296;-64
2022/12/11 10:26:54;;;;;;;135.60;32.97;;;;;;;;;;5008590;28;20281;-65
2022/12/11 10:29:20;;;;;;;126.90;32.20;;;;;;;;;;5008353;28;20307;-65
2022/12/11 10:31:50;;;;;;;132.67;33.80;;;;;;;;;;5008136;28;20107;-64
2022/12/11 10:34:28;;;;;;;124.23;32.23;;;;;;;;;;5007816;28;20355;-64
2022/12/11 10:36:54;;;;;;;123.97;32.13;;;;;;;;;;4989251;28;20317;-64
2022/12/11 10:39:21;;;;;;;122.50;33.33;;;;;;;;;;4989142;28;20318;-64
2022/12/11 10:41:48;;;;;;;116.90;30.50;;;;;;;;;;4989529;28;20314;-64
2022/12/11 10:44:16;;;;;;;106.80;31.37;;;;;;;;;;4989331;28;20297;-64
2022/12/11 10:46:42;;;;;;;122.13;32.10;;;;;;;;;;4989502;28;20625;-64
2022/12/11 10:49:20;;;;;;;144.80;33.83;;;;;;;;;;5003517;28;20049;-64
2022/12/11 10:51:46;;;;;;;126.97;32.23;;;;;;;;;;5009042;28;20335;-64
2022/12/11 10:54:37;;;;;;;138.77;32.20;;;;;;;;;;5009150;28;20285;-64
2022/12/11 10:57:03;;;;;;;114.73;32.37;;;;;;;;;;5003934;28;20058;-64
2022/12/11 10:59:46;;;;;;;134.13;32.77;;;;;;;;;;5008702;28;20316;-64
2022/12/11 11:02:18;;;;;;;126.40;34.13;;;;;;;;;;5008512;28;20659;-64
2022/12/11 11:04:44;;;;;;;123.77;31.17;;;;;;;;;;5009211;28;20297;-64
2022/12/11 11:07:12;;;;;;;149.83;36.13;;;;;;;;;;5008814;28;20285;-65
2022/12/11 11:09:38;;;;;;;123.03;33.27;;;;;;;;;;5008859;28;20292;-64
2022/12/11 11:12:16;;;;;;;111.70;31.83;;;;;;;;;;5008630;28;20308;-64
2022/12/11 11:14:42;;;;;;;124.80;32.07;;;;;;;;;;5008713;28;20050;-64
2022/12/11 11:17:16;;;;;;;112.17;32.53;;;;;;;;;;5008700;28;20799;-64
2022/12/11 11:19:42;;;;;;;;;;;;;;;;;;5008209;28;20057;-64
2022/12/11 11:22:15;;;;;;;122.53;32.60;;;;;;;;;;5008718;28;19928;-64
2022/12/11 11:24:46;;;;;;;132.80;31.93;;;;;;;;;;5007969;28;20120;-64
2022/12/11 11:27:19;;;;;;;119.10;29.37;;;;;;;;;;5007741;28;20647;-64
2022/12/11 11:29:45;;;;;;;151.23;34.63;;;;;;;;;;5007897;28;20723;-64
2022/12/11 11:32:30;;;;;;;121.00;31.03;;;;;;;;;;5007432;28;20053;-64
2022/12/11 11:35:05;;;;;;;130.70;34.03;;;;;;;;;;5007278;28;20307;-64
2022/12/11 11:37:32;;;;;;;133.50;35.80;;;;;;;;;;5007922;28;20291;-64
2022/12/11 11:40:21;;;;;;;111.03;30.87;;;;;;;;;;5007208;28;20538;-63
2022/12/11 11:42:51;;;;;;;116.67;34.73;;;;;;;;;;5003956;28;20053;-64
2022/12/11 11:45:23;;;;;;;116.40;33.37;;;;;;;;;;5002943;28;20530;-63
2022/12/11 11:47:58;;;;;;;119.83;32.73;;;;;;;;;;5007858;28;20107;-63
2022/12/11 11:50:26;;;;;;;121.97;33.30;;;;;;;;;;5008242;28;20050;-64
2022/12/11 11:52:59;;;;;;;130.40;35.37;;;;;;;;;;5008288;28;20424;-63
2022/12/11 11:55:28;;;;;;;126.65;33.83;;;;;;;;;;5007562;28;20616;-64
2022/12/11 11:58:00;;;;;;;115.83;33.97;;;;;;;;;;5006918;28;20056;-64
2022/12/11 12:00:27;;;;;;;124.30;36.07;;;;;;;;;;5005603;28;20901;-64
2022/12/11 12:03:00;;;;;;;119.73;34.47;;;;;;;;;;5027720;28;20292;-64
2022/12/11 12:05:30;;;;;;;145.18;37.72;;;;;;;;;;5027869;28;20628;-64
2022/12/11 12:08:05;;;;;;;131.13;37.33;;;;;;;;;;5020565;28;20053;-64
2022/12/11 12:10:50;;;;;;;119.03;33.60;;;;;;;;;;5002698;28;20453;-64
2022/12/11 12:13:31;;;;;;;123.97;34.70;;;;;;;;;;5006732;28;20060;-64
2022/12/11 12:15:58;;;;;;;118.63;33.77;;;;;;;;;;4987455;28;20289;-64
2022/12/11 12:18:31;;;;;;;106.83;34.17;;;;;;;;;;4989410;28;20512;-64
2022/12/11 12:21:04;;;;;;;108.53;35.73;;;;;;;;;;5007254;28;20308;-64
2022/12/11 12:23:45;;;;;;;120.03;36.73;;;;;;;;;;5008177;28;20929;-64
2022/12/11 12:26:30;;;;;;;107.30;33.70;;;;;;;;;;5007876;28;20647;-64
2022/12/11 12:28:56;;;;;;;95.50;34.17;;;;;;;;;;5006715;28;20351;-64
2022/12/11 12:31:28;;;;;;;113.53;34.57;;;;;;;;;;5007693;28;20416;-64
2022/12/11 12:34:16;;;;;;;105.93;33.77;;;;;;;;;;5011318;28;20412;-64
2022/12/11 12:36:50;;;;;;;117.70;34.60;;;;;;;;;;5012114;28;20077;-65
2022/12/11 12:39:35;;;;;;;101.80;31.63;;;;;;;;;;5011395;28;20377;-64
2022/12/11 12:42:19;;;;;;;101.23;30.50;;;;;;;;;;5010144;28;20100;-64
2022/12/11 12:44:54;;;;;;;139.63;37.17;;;;;;;;;;5009845;28;20439;-64
2022/12/11 12:47:21;;;;;;;116.67;34.77;;;;;;;;;;5010722;28;20070;-64
2022/12/11 12:49:52;;;;;;;100.43;34.07;;;;;;;;;;5011037;28;20042;-64
2022/12/11 12:52:23;;;;;;;105.53;33.50;;;;;;;;;;5011673;28;20128;-65
2022/12/11 12:57:38;;;;;;;91.40;31.90;;;;;;;;;;5011280;28;20312;-64
2022/12/11 13:00:04;;;;;;;78.83;30.53;;;;;;;;;;5011100;28;20312;-65
2022/12/11 13:02:30;;;;;;;77.03;31.90;;;;;;;;;;5011099;28;20420;-64
2022/12/11 13:05:03;;;;;;;71.40;28.27;;;;;;;;;;5011086;28;20763;-64
2022/12/11 13:07:31;;;;;;;74.63;27.95;;;;;;;;;;5011271;28;20353;-65
2022/12/11 13:09:59;;;;;;;67.73;28.10;;;;;;;;;;5009217;28;20594;-64
2022/12/11 13:12:44;;;;;;;68.87;28.30;;;;;;;;;;5011274;28;20297;-65
2022/12/11 13:15:27;;;;;;;71.27;24.43;;;;;;;;;;5011049;28;20663;-65
2022/12/11 13:17:53;;;;;;;61.33;24.53;;;;;;;;;;5010565;28;20304;-64
2022/12/11 13:20:21;;;;;;;62.63;24.87;;;;;;;;;;5010778;28;20312;-64
2022/12/11 13:22:49;;;;;;;53.63;23.90;;;;;;;;;;5010597;28;20289;-64
2022/12/11 13:25:20;;;;;;;49.17;20.70;;;;;;;;;;5010815;28;20289;-64
2022/12/11 13:27:48;;;;;;;54.80;21.43;;;;;;;;;;5009005;28;20348;-64
2022/12/11 13:30:14;;;;;;;56.53;23.23;;;;;;;;;;5010211;28;20042;-64
2022/12/11 13:32:49;;;;;;;53.73;23.87;;;;;;;;;;5010637;28;20412;-64
2022/12/11 13:35:17;;;;;;;53.93;21.37;;;;;;;;;;5010626;28;20042;-64
2022/12/11 13:37:43;;;;;;;52.83;21.17;;;;;;;;;;5010194;28;20376;-64
2022/12/11 13:40:21;;;;;;;58.00;22.33;;;;;;;;;;5010688;28;20046;-64
2022/12/11 13:42:55;;;;;;;52.53;21.07;;;;;;;;;;5009669;28;20288;-64
2022/12/11 13:45:21;;;;;;;;;;;;;;;;;;5009486;28;20351;-64
2022/12/11 13:47:47;;;;;;;55.00;20.90;;;;;;;;;;5008084;28;19925;-64
2022/12/11 13:50:21;;;;;;;46.57;20.30;;;;;;;;;;5020706;28;20055;-64
2022/12/11 13:52:54;;;;;;;42.97;19.17;;;;;;;;;;5030235;28;20276;-65
2022/12/11 13:55:23;;;;;;;48.30;21.35;;;;;;;;;;5028659;28;20300;-65
2022/12/11 13:57:49;;;;;;;45.10;20.10;;;;;;;;;;5029490;28;20550;-64
2022/12/11 14:00:22;;;;;;;52.87;23.57;;;;;;;;;;5029719;28;20348;-64
2022/12/11 14:02:49;;;;;;;41.97;18.98;;;;;;;;;;5029211;28;20300;-64
2022/12/11 14:05:15;;;;;;;49.80;19.07;;;;;;;;;;5030075;28;20133;-64
2022/12/11 14:07:43;;;;;;;41.20;19.03;;;;;;;;;;5030044;28;20046;-64
2022/12/11 14:10:20;;;;;;;41.23;19.07;;;;;;;;;;5029093;28;20416;-64
2022/12/11 14:12:59;;;;;;;46.60;18.83;;;;;;;;;;5029735;28;20052;-64
2022/12/11 14:15:26;;;;;;;40.90;19.20;;;;;;;;;;5020985;28;20890;-65
2022/12/11 14:17:53;;;;;;;43.87;20.77;;;;;;;;;;5009116;28;20485;-65
2022/12/11 14:20:21;;;;;;;47.93;21.10;;;;;;;;;;5017247;28;20495;-65
2022/12/11 14:22:47;;;;;;;48.83;19.93;;;;;;;;;;5029417;28;20389;-65
2022/12/11 14:25:21;;;;;;;47.87;20.17;;;;;;;;;;5028863;28;20045;-64
2022/12/11 14:27:55;;;;;;;46.97;21.17;;;;;;;;;;5027885;28;20387;-65